Time;durP1;ratioP1;P1;durP2;ratioP2;P2;SDS_P1;SDS_P2;PMS_P1;PMS_P2;Temp;Humidity;BMP_temperature;BMP_pressure;BME280_temperature;BME280_humidity;BME280_pressure;Samples;Min_cycle;Max_cycle;Signal;HPM_P1;HPM_P2
2021/08/04 00:01:31;;;;;;;7.18;6.10;;;;;;;18.12;61.76;99897.45;126699;1090;102994;-80
2021/08/04 00:04:19;;;;;;;9.70;5.47;;;;;;;18.09;61.87;99890.59;126718;1089;102930;-80
2021/08/04 00:07:07;;;;;;;7.00;5.67;;;;;;;18.06;61.92;99893.45;126679;1089;113085;-80
2021/08/04 00:09:55;;;;;;;7.43;5.57;;;;;;;18.06;61.91;99893.45;126906;1090;102874;-80
2021/08/04 00:12:43;;;;;;;7.37;5.87;;;;;;;18.06;62.04;99896.08;126817;1089;114189;-80
2021/08/04 00:15:32;;;;;;;5.77;5.20;;;;;;;18.05;62.13;99894.40;126731;1089;102921;-80
2021/08/04 00:18:21;;;;;;;7.97;5.87;;;;;;;18.01;62.16;99892.92;126895;1090;102903;-80
2021/08/04 00:21:08;;;;;;;6.73;6.03;;;;;;;18.00;62.51;99891.23;126894;1090;112693;-80
2021/08/04 00:23:56;;;;;;;7.53;5.23;;;;;;;17.98;62.19;99887.86;126843;1090;102870;-80
2021/08/04 00:26:44;;;;;;;6.77;4.80;;;;;;;17.96;62.20;99896.84;126795;1089;112924;-80
2021/08/04 00:29:32;;;;;;;6.30;5.20;;;;;;;17.97;62.19;99896.73;127003;1090;102914;-80
2021/08/04 00:32:20;;;;;;;8.43;5.40;;;;;;;17.98;62.16;99887.02;126715;1090;114148;-80
2021/08/04 00:35:08;;;;;;;6.77;6.07;;;;;;;18.02;62.40;99893.77;126854;1090;103007;-80
2021/08/04 00:37:57;;;;;;;6.73;6.03;;;;;;;18.02;62.24;99891.13;126821;1089;114286;-80
2021/08/04 00:40:45;;;;;;;7.23;6.20;;;;;;;18.04;62.51;99897.98;127090;1089;102865;-80
2021/08/04 00:43:33;;;;;;;6.33;5.70;;;;;;;18.06;62.50;99905.80;126781;1090;115022;-80
2021/08/04 00:46:21;;;;;;;6.23;5.47;;;;;;;18.06;62.45;99906.64;127008;1090;102930;-80
2021/08/04 00:49:13;;;;;;;6.63;5.90;;;;;;;18.10;62.82;99896.71;126838;1090;114082;-80
2021/08/04 00:52:01;;;;;;;8.33;6.37;;;;;;;18.17;62.60;99903.27;127052;1090;102900;-80
2021/08/04 00:54:49;;;;;;;6.70;5.97;;;;;;;18.23;62.46;99904.64;126869;1090;113103;-80
2021/08/04 00:57:37;;;;;;;9.50;7.77;;;;;;;18.26;62.66;99899.98;127009;1089;102999;-80
2021/08/04 01:00:25;;;;;;;8.47;7.17;;;;;;;18.28;62.72;99887.52;126851;1090;102856;-80
2021/08/04 01:03:17;;;;;;;7.77;6.53;;;;;;;18.25;62.49;99885.09;126800;1090;113934;-80
2021/08/04 01:06:12;;;;;;;7.40;6.45;;;;;;;18.28;62.42;99889.31;127058;1090;102969;-80
2021/08/04 01:09:02;;;;;;;9.37;6.53;;;;;;;18.28;62.27;99890.16;126728;1089;113022;-80
2021/08/04 01:11:55;;;;;;;8.50;6.47;;;;;;;18.30;62.21;99887.41;127061;1090;102965;-80
2021/08/04 01:14:47;;;;;;;6.83;6.03;;;;;;;18.32;62.28;99880.25;126902;1088;113139;-80
2021/08/04 01:17:40;;;;;;;8.63;5.80;;;;;;;18.32;62.56;99882.89;126893;1090;102833;-80
2021/08/04 01:20:30;;;;;;;10.73;5.90;;;;;;;18.30;62.23;99888.25;126776;1090;113953;-80
2021/08/04 01:23:36;;;;;;;7.23;6.40;;;;;;;18.25;62.47;99886.89;126985;1088;101749;-80
2021/08/04 01:26:31;;;;;;;7.53;5.83;;;;;;;18.17;62.46;99884.80;126937;1090;113922;-80
2021/08/04 01:29:22;;;;;;;8.47;6.10;;;;;;;18.16;62.41;99885.75;127046;1090;102660;-79
2021/08/04 01:32:12;;;;;;;6.80;6.10;;;;;;;18.15;62.83;99888.50;126666;1090;114067;-79
2021/08/04 01:35:03;;;;;;;7.20;6.00;;;;;;;18.11;62.95;99883.41;126902;1090;105055;-80
2021/08/04 01:37:52;;;;;;;7.23;5.83;;;;;;;18.13;63.20;99875.38;127005;1090;113880;-80
2021/08/04 01:40:47;;;;;;;8.13;4.97;;;;;;;18.13;63.20;99875.38;126722;1089;103010;-80
2021/08/04 01:43:37;;;;;;;8.83;6.17;;;;;;;18.11;62.86;99882.56;126874;1088;114197;-81
2021/08/04 01:46:26;;;;;;;6.97;5.30;;;;;;;18.09;62.94;99887.11;126882;1088;103153;-79
2021/08/04 01:49:15;;;;;;;6.30;5.70;;;;;;;18.09;62.95;99885.31;126755;1088;114107;-78
2021/08/04 01:52:06;;;;;;;7.03;5.47;;;;;;;18.11;62.80;99872.84;126864;1090;102840;-79
2021/08/04 01:54:56;;;;;;;5.90;5.13;;;;;;;18.14;62.86;99878.89;126559;1089;114306;-78
2021/08/04 01:57:44;;;;;;;5.80;5.17;;;;;;;18.09;62.67;99882.67;127042;1088;102863;-79
2021/08/04 02:00:32;;;;;;;;;;;;;;;18.11;62.73;99886.05;126774;1088;103023;-79
2021/08/04 02:03:19;;;;;;;7.30;5.37;;;;;;;18.07;62.46;99879.30;126823;1090;103332;-79
2021/08/04 02:06:48;;;;;;;7.47;6.03;;;;;;;18.10;62.70;99871.16;126836;1090;103013;-79
2021/08/04 02:09:50;;;;;;;10.00;5.77;;;;;;;18.12;62.40;99871.89;126527;1090;113984;-79
2021/08/04 02:12:51;;;;;;;7.33;5.63;;;;;;;18.11;62.44;99862.30;126734;1090;102983;-79
2021/08/04 02:15:41;;;;;;;7.60;5.70;;;;;;;18.09;62.53;99869.48;126677;1090;114163;-79
2021/08/04 02:18:31;;;;;;;10.40;5.87;;;;;;;18.06;62.59;99877.61;126583;1093;103117;-79
2021/08/04 02:21:23;;;;;;;6.73;5.90;;;;;;;18.02;62.64;99870.86;126541;1090;113282;-79
2021/08/04 02:24:15;;;;;;;11.27;7.70;;;;;;;18.01;62.54;99866.53;126719;1090;102879;-79
2021/08/04 02:27:05;;;;;;;19.23;17.20;;;;;;;18.00;62.69;99864.01;126495;1091;114148;-79
2021/08/04 02:29:56;;;;;;;9.77;7.90;;;;;;;18.00;63.10;99869.28;126570;1090;103020;-79
2021/08/04 02:32:44;;;;;;;8.00;6.50;;;;;;;18.01;63.00;99866.53;126607;1090;114426;-79
2021/08/04 02:35:33;;;;;;;7.60;5.97;;;;;;;18.02;62.77;99864.74;126819;1088;102992;-79
2021/08/04 02:38:21;;;;;;;6.83;5.80;;;;;;;18.03;62.86;99856.72;126668;1090;113138;-79
2021/08/04 02:41:09;;;;;;;8.03;6.33;;;;;;;18.05;62.85;99861.89;126782;1090;103016;-79
2021/08/04 02:43:57;;;;;;;8.57;6.40;;;;;;;18.07;62.88;99855.55;126647;1090;114115;-79
2021/08/04 02:46:46;;;;;;;11.00;6.63;;;;;;;18.08;62.88;99859.88;126646;1090;103332;-79
2021/08/04 02:49:35;;;;;;;8.83;6.17;;;;;;;18.12;63.03;99857.86;126810;1090;114266;-79
2021/08/04 02:52:24;;;;;;;11.23;7.03;;;;;;;18.15;63.03;99847.11;126917;1090;102942;-79
2021/08/04 02:55:12;;;;;;;7.73;6.23;;;;;;;18.14;62.97;99847.22;126759;1088;102970;-79
2021/08/04 02:58:02;;;;;;;7.33;6.20;;;;;;;18.12;63.08;99842.86;126861;1088;102860;-79
2021/08/04 03:00:50;;;;;;;6.50;5.50;;;;;;;18.15;63.16;99840.99;126899;1089;102947;-79
2021/08/04 03:03:38;;;;;;;7.30;5.90;;;;;;;18.16;63.35;99832.13;126754;1090;114855;-80
2021/08/04 03:06:27;;;;;;;8.43;6.30;;;;;;;18.16;63.41;99843.52;126760;1090;101722;-80
2021/08/04 03:09:15;;;;;;;9.67;6.23;;;;;;;18.20;63.62;99850.27;126731;1089;114081;-80
2021/08/04 03:12:03;;;;;;;6.53;5.93;;;;;;;18.21;63.64;99854.59;126862;1090;102852;-80
2021/08/04 03:14:51;;;;;;;10.00;6.40;;;;;;;18.21;63.78;99864.31;126771;1087;114093;-80
2021/08/04 03:17:39;;;;;;;6.90;5.73;;;;;;;18.23;63.94;99862.41;126793;1089;103083;-80
2021/08/04 03:20:26;;;;;;;8.27;6.47;;;;;;;18.26;64.14;99862.19;126853;1090;113185;-81
2021/08/04 03:23:14;;;;;;;6.97;6.27;;;;;;;18.24;64.07;99853.53;126867;1089;102920;-80
2021/08/04 03:26:02;;;;;;;8.33;6.50;;;;;;;18.24;64.08;99856.17;126800;1090;114074;-80
2021/08/04 03:28:49;;;;;;;;;;;;;;;18.26;64.49;99859.55;126774;1090;103001;-80
2021/08/04 03:31:36;;;;;;;8.20;6.13;;;;;;;18.25;64.40;99871.05;126905;1089;102339;-80
2021/08/04 03:34:24;;;;;;;7.33;6.20;;;;;;;18.25;64.53;99865.78;126883;1090;103322;-80
2021/08/04 03:37:13;;;;;;;8.03;6.27;;;;;;;18.26;64.66;99868.30;126715;1090;102871;-80
2021/08/04 03:40:02;;;;;;;9.07;6.50;;;;;;;18.31;64.51;99867.98;126616;1090;114142;-80
2021/08/04 03:42:49;;;;;;;9.57;7.03;;;;;;;18.32;64.58;99865.26;126929;1090;102657;-80
2021/08/04 03:45:37;;;;;;;7.83;6.30;;;;;;;18.33;64.82;99860.82;126880;1089;114148;-80
2021/08/04 03:48:25;;;;;;;7.30;6.50;;;;;;;18.40;64.86;99862.06;126936;1088;102908;-80
2021/08/04 03:51:12;;;;;;;;;;;;;;;18.48;64.76;99864.16;126945;1090;114422;-80
2021/08/04 03:54:00;;;;;;;10.40;6.50;;;;;;;18.53;64.65;99862.89;127069;1089;101756;-80
2021/08/04 03:56:48;;;;;;;10.87;7.67;;;;;;;18.62;64.85;99871.95;126997;1089;114478;-81
2021/08/04 03:59:36;;;;;;;9.17;7.47;;;;;;;18.70;64.61;99870.49;127068;1089;102921;-80
2021/08/04 04:02:23;;;;;;;;;;;;;;;18.75;64.62;99864.88;126914;1087;113058;-80
2021/08/04 04:05:11;;;;;;;10.60;8.23;;;;;;;18.76;64.45;99873.64;126908;1088;103432;-80
2021/08/04 04:07:59;;;;;;;9.43;8.10;;;;;;;18.79;64.34;99876.05;126920;1090;102852;-80
2021/08/04 04:10:47;;;;;;;9.70;7.47;;;;;;;18.78;64.45;99877.02;126894;1089;114081;-81
2021/08/04 04:13:34;;;;;;;;;;;;;;;18.76;64.31;99871.00;127050;1090;102850;-81
2021/08/04 04:16:22;;;;;;;10.33;8.17;;;;;;;18.66;64.31;99871.64;127032;1089;103010;-81
2021/08/04 04:19:10;;;;;;;11.73;8.50;;;;;;;18.56;64.48;99862.67;127045;1090;102960;-80
2021/08/04 04:21:58;;;;;;;;;;;;;;;18.55;64.53;99871.55;126991;1090;112925;-81
2021/08/04 04:24:46;;;;;;;13.93;7.80;;;;;;;18.54;64.63;99869.86;127112;1089;102743;-80
2021/08/04 04:27:34;;;;;;;10.90;8.37;;;;;;;18.56;64.67;99867.95;127033;1089;113258;-81
2021/08/04 04:30:23;;;;;;;9.87;8.13;;;;;;;18.55;64.53;99871.55;126945;1090;102937;-81
2021/08/04 04:33:10;;;;;;;11.47;8.80;;;;;;;18.55;64.64;99874.19;126892;1088;113254;-80
2021/08/04 04:35:58;;;;;;;10.07;7.70;;;;;;;18.55;64.44;99871.55;126895;1090;102676;-80
2021/08/04 04:38:46;;;;;;;8.95;7.70;;;;;;;18.53;64.47;99873.45;126985;1089;113297;-80
2021/08/04 04:41:35;;;;;;;12.27;8.60;;;;;;;18.50;64.57;99876.32;127111;1088;103241;-80
2021/08/04 04:44:22;;;;;;;;;;;;;;;18.57;64.54;99869.64;127102;1088;102126;-80
2021/08/04 04:47:10;;;;;;;9.27;7.97;;;;;;;18.64;64.40;99892.04;127159;1089;102680;-80
2021/08/04 04:49:57;;;;;;;8.80;7.87;;;;;;;18.66;64.30;99879.56;127087;1090;101322;-80
2021/08/04 04:52:45;;;;;;;11.73;8.07;;;;;;;18.71;64.26;99888.03;126853;1088;114263;-80
2021/08/04 04:55:33;;;;;;;10.30;8.20;;;;;;;18.75;64.38;99885.16;127183;1090;103029;-81
2021/08/04 04:58:23;;;;;;;13.70;8.03;;;;;;;18.80;64.31;99883.02;126877;1088;114384;-80
2021/08/04 05:01:11;;;;;;;9.83;8.37;;;;;;;18.88;64.37;99883.34;126941;1090;102743;-80
2021/08/04 05:04:00;;;;;;;13.07;9.10;;;;;;;18.94;64.26;99886.37;126850;1089;113945;-80
2021/08/04 05:06:47;;;;;;;11.47;8.20;;;;;;;18.96;64.07;99891.54;127111;1090;102888;-80
2021/08/04 05:09:35;;;;;;;10.70;8.50;;;;;;;18.95;64.04;99897.78;126763;1090;115195;-80
2021/08/04 05:12:22;;;;;;;;;;;;;;;18.84;64.05;99895.05;127189;1089;102940;-80
2021/08/04 05:15:12;;;;;;;11.17;9.33;;;;;;;18.76;64.14;99889.48;126937;1090;101328;-81
2021/08/04 05:18:00;;;;;;;9.77;8.73;;;;;;;18.78;64.43;99891.06;126893;1090;102932;-80
2021/08/04 05:20:49;;;;;;;11.80;9.30;;;;;;;18.76;64.52;99898.26;127170;1090;102940;-80
2021/08/04 05:23:36;;;;;;;11.70;8.60;;;;;;;18.58;64.89;99905.66;127093;1090;102990;-80
2021/08/04 05:26:24;;;;;;;13.17;8.47;;;;;;;18.39;64.99;99892.91;127060;1090;102869;-80
2021/08/04 05:29:12;;;;;;;25.80;9.90;;;;;;;18.31;65.79;99895.25;126840;1090;114394;-80
2021/08/04 05:32:00;;;;;;;13.33;8.23;;;;;;;18.20;65.68;99892.50;127142;1090;102969;-81
2021/08/04 05:34:53;;;;;;;15.40;8.70;;;;;;;18.09;66.02;99892.39;126809;1090;114488;-80
2021/08/04 05:37:40;;;;;;;8.70;7.80;;;;;;;17.97;66.01;99890.61;127084;1089;102856;-80
2021/08/04 05:40:29;;;;;;;11.07;7.63;;;;;;;17.90;66.92;99902.51;126887;1088;114067;-80
2021/08/04 05:43:16;;;;;;;10.40;8.23;;;;;;;17.81;66.75;99898.72;126991;1090;102769;-80
2021/08/04 05:46:04;;;;;;;12.00;8.55;;;;;;;17.76;66.96;99899.00;126875;1089;114948;-80
2021/08/04 05:48:53;;;;;;;10.63;8.20;;;;;;;17.76;66.98;99899.00;127071;1089;102933;-80
2021/08/04 05:51:40;;;;;;;12.23;8.03;;;;;;;17.72;66.80;99902.80;126829;1090;114464;-80
2021/08/04 05:54:28;;;;;;;15.23;8.17;;;;;;;17.65;67.83;99911.20;126974;1090;101182;-80
2021/08/04 05:57:17;;;;;;;8.50;7.57;;;;;;;17.51;67.34;99923.50;126937;1089;102848;-80
2021/08/04 06:00:05;;;;;;;9.43;7.73;;;;;;;17.39;67.57;99942.75;126912;1089;103049;-80
2021/08/04 06:02:53;;;;;;;11.43;6.80;;;;;;;17.27;68.15;99951.47;126954;1089;101788;-80
2021/08/04 06:05:41;;;;;;;11.70;7.33;;;;;;;17.20;68.16;99948.37;126708;1090;114135;-80
2021/08/04 06:08:30;;;;;;;9.43;7.27;;;;;;;17.05;68.44;99946.70;126748;1090;102984;-80
2021/08/04 06:11:17;;;;;;;12.07;8.00;;;;;;;16.94;70.24;99951.83;126812;1088;112864;-80
2021/08/04 06:14:04;;;;;;;14.90;8.13;;;;;;;16.75;71.35;99943.39;126896;1090;102885;-80
2021/08/04 06:16:52;;;;;;;10.17;6.60;;;;;;;16.60;73.04;99959.16;126854;1089;114084;-82
2021/08/04 06:19:40;;;;;;;11.78;6.58;;;;;;;16.39;73.20;99942.05;126959;1089;102920;-81
2021/08/04 06:22:27;;;;;;;22.53;8.60;;;;;;;16.21;75.61;99957.16;126807;1090;113269;-81
2021/08/04 06:25:15;;;;;;;15.10;7.27;;;;;;;16.09;75.45;99957.89;126980;1089;102881;-81
2021/08/04 06:28:04;;;;;;;10.70;6.23;;;;;;;16.00;74.48;99948.77;126716;1089;114415;-81
2021/08/04 06:30:52;;;;;;;10.03;6.80;;;;;;;15.96;75.24;99941.97;126971;1090;101057;-81
2021/08/04 06:33:39;;;;;;;9.87;6.50;;;;;;;15.97;75.06;99948.08;126874;1090;102945;-81
2021/08/04 06:36:27;;;;;;;;;;;;;;;15.98;75.10;99945.39;126891;1088;102847;-81
2021/08/04 06:39:14;;;;;;;8.20;6.87;;;;;;;16.04;75.47;99938.06;126894;1090;101248;-81
2021/08/04 06:42:12;;;;;;;10.80;7.47;;;;;;;16.13;75.53;99937.49;126846;1090;114163;-80
2021/08/04 06:45:00;;;;;;;8.40;7.13;;;;;;;16.26;75.50;99934.05;127030;1090;102849;-80
2021/08/04 06:47:48;;;;;;;10.57;6.63;;;;;;;16.42;75.89;99939.22;126969;1090;114259;-81
2021/08/04 06:50:36;;;;;;;12.03;6.50;;;;;;;16.52;75.60;99950.90;127045;1088;102946;-80
2021/08/04 06:53:24;;;;;;;7.97;6.60;;;;;;;16.60;75.84;99955.68;126783;1087;114145;-80
2021/08/04 06:56:11;;;;;;;;;;;;;;;16.69;75.38;99956.91;126874;1090;100810;-81
2021/08/04 06:58:59;;;;;;;8.23;6.87;;;;;;;16.75;75.49;99957.41;126797;1090;102862;-80
2021/08/04 07:01:47;;;;;;;8.77;6.37;;;;;;;16.83;75.12;99956.91;126928;1090;102948;-80
2021/08/04 07:04:35;;;;;;;7.50;6.57;;;;;;;16.89;75.16;99946.02;126896;1090;114245;-80
2021/08/04 07:07:23;;;;;;;7.63;6.47;;;;;;;17.04;75.36;99952.08;126948;1090;103094;-80
2021/08/04 07:10:13;;;;;;;9.27;6.83;;;;;;;17.17;75.12;99952.99;126865;1090;114207;-80
2021/08/04 07:13:01;;;;;;;11.30;6.93;;;;;;;17.27;75.14;99948.84;126984;1089;102880;-80
2021/08/04 07:15:50;;;;;;;8.37;7.37;;;;;;;17.38;75.31;99956.88;127008;1090;102924;-80
2021/08/04 07:18:38;;;;;;;8.80;7.60;;;;;;;17.53;74.97;99953.25;126727;1090;114004;-80
2021/08/04 07:21:26;;;;;;;11.53;8.27;;;;;;;17.65;75.12;99953.40;126884;1089;102911;-81
2021/08/04 07:24:14;;;;;;;;;;;;;;;17.75;74.85;99954.50;126927;1089;114244;-81
2021/08/04 07:27:02;;;;;;;11.43;7.55;;;;;;;17.84;74.46;99958.33;126985;1090;104836;-81
2021/08/04 07:29:50;;;;;;;10.50;8.27;;;;;;;17.88;74.43;99949.26;126888;1090;114387;-81
2021/08/04 07:32:38;;;;;;;12.03;7.63;;;;;;;17.97;74.49;99954.78;126815;1089;102884;-81
2021/08/04 07:35:27;;;;;;;10.13;8.57;;;;;;;18.05;73.90;99948.97;126737;1090;114425;-81
2021/08/04 07:38:15;;;;;;;12.90;8.97;;;;;;;18.08;73.96;99954.88;126789;1089;103849;-81
2021/08/04 07:41:04;;;;;;;12.60;8.57;;;;;;;18.13;74.25;99949.28;126738;1088;114401;-80
2021/08/04 07:43:52;;;;;;;14.30;8.93;;;;;;;18.24;74.02;99953.84;126974;1090;102884;-81
2021/08/04 07:46:39;;;;;;;;;;;;;;;18.31;73.46;99955.09;126741;1089;114386;-81
2021/08/04 07:49:27;;;;;;;10.93;8.50;;;;;;;18.31;72.79;99957.73;126891;1089;101554;-81
2021/08/04 07:52:15;;;;;;;;;;;;;;;18.26;72.61;99959.86;126877;1090;102928;-81
2021/08/04 07:55:06;;;;;;;12.23;8.73;;;;;;;18.19;72.40;99958.59;126860;1090;102908;-81
2021/08/04 07:57:54;;;;;;;11.20;8.07;;;;;;;18.16;72.46;99961.45;126860;1088;100522;-81
2021/08/04 08:00:41;;;;;;;;;;;;;;;18.09;72.37;99956.56;126710;1090;114310;-81
2021/08/04 08:03:30;;;;;;;10.45;8.03;;;;;;;18.06;72.80;99964.70;126776;1089;102870;-81
2021/08/04 08:06:18;;;;;;;12.83;8.40;;;;;;;18.11;73.10;99962.58;126706;1090;114397;-81
2021/08/04 08:09:05;;;;;;;13.47;8.43;;;;;;;18.19;73.23;99966.52;126827;1089;102866;-81
2021/08/04 08:11:57;;;;;;;11.93;7.77;;;;;;;18.24;73.41;99972.32;126804;1089;113842;-81
2021/08/04 08:14:44;;;;;;;8.13;7.33;;;;;;;18.16;72.57;99969.37;126758;1089;102875;-81
2021/08/04 08:17:32;;;;;;;9.20;7.80;;;;;;;17.97;72.61;99978.53;126595;1090;113180;-81
2021/08/04 08:20:20;;;;;;;;;;;;;;;17.90;72.84;99974.59;126755;1090;102919;-82
2021/08/04 08:23:09;;;;;;;9.10;7.13;;;;;;;17.79;73.00;99977.11;126698;1089;102875;-81
2021/08/04 08:25:57;;;;;;;9.67;6.53;;;;;;;17.80;73.63;99974.38;126910;1090;102942;-81
2021/08/04 08:28:45;;;;;;;10.60;6.83;;;;;;;17.79;73.37;99974.48;126951;1089;102935;-81
2021/08/04 08:31:36;;;;;;;8.97;6.30;;;;;;;17.87;73.63;99974.80;126761;1089;102821;-81
2021/08/04 08:34:23;;;;;;;8.07;6.00;;;;;;;17.89;73.19;99975.53;126982;1089;102824;-81
2021/08/04 08:37:11;;;;;;;9.47;6.53;;;;;;;17.92;73.16;99970.05;126907;1090;114227;-80
2021/08/04 08:39:59;;;;;;;;;;;;;;;17.96;73.04;99968.08;127023;1090;104960;-80
2021/08/04 08:42:46;;;;;;;8.47;6.73;;;;;;;18.02;73.05;99967.66;126906;1090;102860;-80
2021/08/04 08:45:34;;;;;;;10.93;6.60;;;;;;;18.09;73.15;99982.11;127004;1090;103217;-81
2021/08/04 08:48:22;;;;;;;3.70;3.40;;;;;;;18.03;71.50;99980.74;126844;1088;113475;-81
2021/08/04 08:51:10;;;;;;;5.30;4.17;;;;;;;17.95;71.60;99982.19;127019;1089;102852;-81
2021/08/04 08:53:58;;;;;;;3.77;3.40;;;;;;;17.85;71.12;99981.97;126923;1088;113372;-82
2021/08/04 08:56:46;;;;;;;4.57;3.50;;;;;;;17.83;71.12;99978.59;126850;1089;102962;-81
2021/08/04 08:59:33;;;;;;;;;;;;;;;17.79;71.71;99977.11;126935;1090;114463;-81
2021/08/04 09:02:21;;;;;;;8.13;4.50;;;;;;;17.79;72.17;99982.39;126964;1090;102937;-81
2021/08/04 09:05:12;;;;;;;6.43;4.87;;;;;;;17.83;72.27;99980.39;126846;1090;102908;-81
2021/08/04 09:08:00;;;;;;;5.63;5.03;;;;;;;17.86;72.34;99978.38;126940;1089;102930;-81
2021/08/04 09:10:47;;;;;;;;;;;;;;;17.90;72.09;99979.86;126862;1090;101425;-82
2021/08/04 09:13:35;;;;;;;4.90;4.30;;;;;;;17.96;71.96;99986.55;126858;1090;102852;-81
2021/08/04 09:16:32;;;;;;;6.50;4.13;;;;;;;17.97;71.36;99988.23;126836;1089;102660;-81
2021/08/04 09:19:22;;;;;;;6.80;4.10;;;;;;;17.90;70.97;99987.78;126739;1088;113963;-80
2021/08/04 09:22:27;;;;;;;6.00;3.93;;;;;;;17.91;71.11;99973.64;126888;1090;101222;-80
2021/08/04 09:25:15;;;;;;;4.90;3.70;;;;;;;17.99;70.88;99973.98;126712;1089;112987;-80
2021/08/04 09:28:02;;;;;;;6.30;3.90;;;;;;;18.07;71.04;99976.94;126964;1089;103011;-80
2021/08/04 09:31:03;;;;;;;7.70;3.37;;;;;;;18.15;71.11;99967.69;126814;1090;114132;-81
2021/08/04 09:33:51;;;;;;;3.63;2.80;;;;;;;18.16;70.68;99964.94;126824;1088;102942;-80
2021/08/04 09:36:38;;;;;;;5.57;2.70;;;;;;;18.16;70.31;99964.09;126751;1090;114254;-80
2021/08/04 09:39:26;;;;;;;;;;;;;;;18.09;70.44;99964.48;126826;1089;102772;-81
2021/08/04 09:42:14;;;;;;;8.60;5.63;;;;;;;18.07;70.35;99965.55;126794;1090;101720;-80
2021/08/04 09:45:02;;;;;;;9.97;5.33;;;;;;;18.08;70.60;99956.67;126953;1090;103033;-80
2021/08/04 09:47:54;;;;;;;5.63;3.10;;;;;;;18.07;70.42;99961.11;126764;1088;113354;-80
2021/08/04 09:50:56;;;;;;;4.67;2.40;;;;;;;18.09;70.41;99969.77;126961;1089;102990;-80
2021/08/04 09:53:49;;;;;;;3.23;2.00;;;;;;;18.14;70.60;99958.08;126801;1089;113172;-81
2021/08/04 09:56:52;;;;;;;2.50;1.80;;;;;;;18.15;70.42;99960.61;126755;1090;102852;-80
2021/08/04 10:00:05;;;;;;;1.80;1.60;;;;;;;18.10;70.15;99966.17;126945;1088;102895;-80
2021/08/04 10:02:52;;;;;;;3.30;2.00;;;;;;;18.06;70.03;99977.89;126835;1089;102911;-81
2021/08/04 10:05:44;;;;;;;4.40;2.00;;;;;;;18.01;69.98;99969.45;126955;1090;102911;-81
2021/08/04 10:08:32;;;;;;;1.97;1.70;;;;;;;18.02;70.41;99978.20;126855;1088;113765;-81
2021/08/04 10:11:22;;;;;;;2.80;1.93;;;;;;;18.01;70.44;99977.37;126766;1090;103020;-81
2021/08/04 10:14:13;;;;;;;2.93;2.10;;;;;;;17.99;70.52;99973.98;126799;1090;114062;-80
2021/08/04 10:17:04;;;;;;;3.40;2.10;;;;;;;17.98;70.67;99977.58;126883;1090;102128;-81
2021/08/04 10:19:52;;;;;;;2.50;1.90;;;;;;;17.97;70.90;99981.16;126902;1089;112748;-81
2021/08/04 10:22:43;;;;;;;5.13;1.67;;;;;;;17.94;71.00;99986.62;126952;1088;101408;-81
2021/08/04 10:25:33;;;;;;;3.70;1.93;;;;;;;17.92;70.95;99992.95;126805;1090;114036;-80
2021/08/04 10:28:21;;;;;;;3.10;1.70;;;;;;;17.84;70.43;100006.66;126889;1090;102858;-80
2021/08/04 10:31:10;;;;;;;3.90;1.83;;;;;;;17.79;70.43;100008.77;126863;1087;114009;-81
2021/08/04 10:33:58;;;;;;;1.50;1.40;;;;;;;17.64;70.06;100005.30;126833;1089;102971;-81
2021/08/04 10:36:46;;;;;;;1.37;1.27;;;;;;;17.55;69.81;100008.52;126680;1089;114445;-80
2021/08/04 10:39:34;;;;;;;4.57;1.97;;;;;;;17.41;70.38;100008.55;126967;1089;102882;-80
2021/08/04 10:42:37;;;;;;;1.90;1.70;;;;;;;17.34;70.70;100008.11;126759;1090;114537;-80
2021/08/04 10:45:30;;;;;;;2.85;1.70;;;;;;;17.19;71.03;100009.92;126898;1090;102656;-80
2021/08/04 10:48:23;;;;;;;2.43;1.97;;;;;;;17.15;71.25;100018.13;126970;1090;115198;-80
2021/08/04 10:51:13;;;;;;;3.83;2.07;;;;;;;17.18;71.32;100007.39;126850;1090;102972;-81
2021/08/04 10:54:12;;;;;;;2.27;1.60;;;;;;;17.23;71.51;100007.94;126981;1090;102881;-81
2021/08/04 10:57:03;;;;;;;4.27;1.90;;;;;;;17.31;71.88;100000.41;127062;1090;102827;-81
2021/08/04 10:59:50;;;;;;;7.93;5.68;;;;;;;17.41;71.89;100005.92;126921;1090;102998;-82
2021/08/04 11:02:38;;;;;;;4.43;2.83;;;;;;;17.52;71.95;100009.56;126821;1090;114426;-82
2021/08/04 11:06:05;;;;;;;2.45;1.90;;;;;;;17.52;71.27;100012.20;126997;1090;102866;-81
2021/08/04 11:09:21;;;;;;;2.93;2.10;;;;;;;17.53;71.48;100008.63;126909;1090;113960;-80
2021/08/04 11:12:17;;;;;;;3.40;2.48;;;;;;;17.58;71.68;100004.83;126983;1090;102936;-79
2021/08/04 11:15:25;;;;;;;2.37;1.80;;;;;;;17.60;71.31;100014.36;126894;1090;113939;-80
2021/08/04 11:18:13;;;;;;;2.05;1.50;;;;;;;17.69;71.74;100010.30;126882;1090;102889;-80
2021/08/04 11:21:13;;;;;;;1.57;1.43;;;;;;;17.75;71.08;100007.25;126693;1089;114019;-80
2021/08/04 11:24:03;;;;;;;2.67;1.70;;;;;;;17.80;71.54;100007.82;126909;1090;102871;-80
2021/08/04 11:27:18;;;;;;;2.07;1.60;;;;;;;17.92;71.56;100006.98;126910;1088;113872;-81
2021/08/04 11:30:11;;;;;;;3.07;1.97;;;;;;;17.96;71.26;100003.22;126915;1089;102908;-80
2021/08/04 11:33:19;;;;;;;3.97;2.90;;;;;;;17.89;70.38;100001.92;126872;1089;113227;-81
2021/08/04 11:36:22;;;;;;;3.13;2.17;;;;;;;17.84;70.87;100006.66;126946;1089;102923;-81
2021/08/04 11:39:10;;;;;;;1.97;1.70;;;;;;;17.91;71.55;99991.27;126818;1089;114452;-80
2021/08/04 11:41:59;;;;;;;2.30;2.00;;;;;;;17.90;71.06;99994.84;126941;1089;103313;-80
2021/08/04 11:44:48;;;;;;;2.50;2.10;;;;;;;17.83;70.83;99993.58;126649;1090;114205;-81
2021/08/04 11:47:36;;;;;;;2.37;1.60;;;;;;;17.89;71.38;99994.00;126879;1089;103307;-80
2021/08/04 11:50:24;;;;;;;3.43;2.07;;;;;;;18.04;71.34;99992.98;126755;1090;115180;-80
2021/08/04 11:53:12;;;;;;;4.87;2.60;;;;;;;18.21;71.36;99991.01;126884;1090;102997;-80
2021/08/04 11:56:03;;;;;;;3.03;2.37;;;;;;;18.37;71.53;99994.30;126689;1090;114165;-80
2021/08/04 11:58:51;;;;;;;1.93;1.77;;;;;;;18.48;71.31;99986.47;126859;1090;102956;-80
2021/08/04 12:01:39;;;;;;;2.60;1.70;;;;;;;18.56;71.02;99978.88;126749;1089;114255;-80
2021/08/04 12:04:31;;;;;;;2.67;1.87;;;;;;;18.59;70.80;99986.58;126944;1090;102853;-80
2021/08/04 12:07:25;;;;;;;2.77;2.10;;;;;;;18.70;71.05;99981.44;126914;1089;113307;-80
2021/08/04 12:10:16;;;;;;;4.80;1.90;;;;;;;18.87;71.34;99976.77;127056;1090;102855;-80
2021/08/04 12:13:05;;;;;;;3.80;1.73;;;;;;;19.01;70.82;99973.97;126961;1090;114394;-81
2021/08/04 12:15:59;;;;;;;2.80;2.00;;;;;;;19.13;70.70;99973.11;127049;1090;103001;-80
2021/08/04 12:18:48;;;;;;;3.07;1.90;;;;;;;19.25;69.93;99972.23;127010;1090;102961;-80
2021/08/04 12:21:36;;;;;;;3.85;2.00;;;;;;;19.31;69.68;99961.20;126733;1088;113713;-82
2021/08/04 12:24:24;;;;;;;;;;;;;;;19.44;69.66;99960.31;127017;1089;102846;-81
2021/08/04 12:27:13;;;;;;;3.10;2.28;;;;;;;19.51;69.24;99962.38;126897;1090;102700;-81
2021/08/04 12:30:36;;;;;;;3.27;1.83;;;;;;;19.68;69.46;99958.52;126993;1090;102921;-81
2021/08/04 12:33:28;;;;;;;2.30;1.50;;;;;;;19.88;69.21;99954.38;126951;1090;114360;-80
2021/08/04 12:39:31;;;;;;;1.60;1.50;;;;;;;20.38;68.85;99942.58;126909;1088;114226;-80
2021/08/04 12:42:20;;;;;;;3.10;1.40;;;;;;;20.60;67.63;99946.23;126982;1090;102900;-80
2021/08/04 12:45:28;;;;;;;2.20;1.55;;;;;;;20.82;67.46;99946.22;126875;1090;112896;-80
2021/08/04 12:48:18;;;;;;;7.80;2.67;;;;;;;21.09;67.07;99943.18;127030;1088;102785;-80
2021/08/04 12:51:11;;;;;;;2.77;1.90;;;;;;;21.38;66.60;99944.36;126839;1089;112951;-81
2021/08/04 12:54:04;;;;;;;2.10;1.90;;;;;;;21.64;65.68;99936.05;126918;1089;102845;-81
2021/08/04 12:56:52;;;;;;;2.83;2.27;;;;;;;21.94;65.87;99941.45;126739;1089;113665;-81
2021/08/04 12:59:46;;;;;;;5.77;3.83;;;;;;;22.25;64.93;99945.02;126945;1089;102850;-80
2021/08/04 13:02:41;;;;;;;2.53;2.20;;;;;;;22.49;64.56;99936.78;126838;1088;114274;-81
2021/08/04 13:05:29;;;;;;;2.33;1.90;;;;;;;22.75;64.26;99923.02;126836;1089;103028;-81
2021/08/04 13:08:31;;;;;;;2.37;1.67;;;;;;;22.92;63.70;99922.40;126741;1090;113015;-80